Walla Walla, Washington
Current Conditions -  °F | °C
As of 12:53 PM on Saturday 22 Nov 2014 (Local Time) from KALW Reporting Station
Overcast Overcast  
Wind Chill: 45°   Ceiling: 8500
Heat Index: 49°   Visibility: 10mi
Dew Point: 36°   Wind: 10mph
Humidity: 61%   Direction: 200°SSW
Pressure: 29.79"   Gusts: NA
Location:  46.07°N, 118.34°W
Report Text: KALW 222053Z 20009KT 10SM SCT065 OVC085 09/02 A2979 RMK AO2 SLP093 T00940022 53003
Loading
Personal Weather Stations






























Interactive Weather Map New forecast layout! Learn more

10-Day Weather Forecast

Advertisements
Track Severe Weather on mobile